createdAt,value
2023-04-05T00:01:55.596Z,-1.90
2023-04-05T00:07:02.545Z,-1.80
2023-04-05T00:12:08.864Z,-1.90
2023-04-05T00:17:13.360Z,-1.90
2023-04-05T00:22:25.671Z,-2.00
2023-04-05T00:27:31.481Z,-2.20
2023-04-05T00:32:36.840Z,-2.10
2023-04-05T00:37:40.972Z,-2.20
2023-04-05T00:42:46.476Z,-2.30
2023-04-05T00:47:50.849Z,-2.30
2023-04-05T00:52:54.962Z,-2.30
2023-04-05T00:58:00.696Z,-2.30
2023-04-05T01:03:07.864Z,-2.30
2023-04-05T01:08:18.355Z,-2.20
2023-04-05T01:13:25.616Z,-2.20
2023-04-05T01:18:30.956Z,-2.30
2023-04-05T01:23:45.689Z,-2.30
2023-04-05T01:29:05.774Z,-2.30
2023-04-05T01:34:18.647Z,-2.40
2023-04-05T01:39:24.830Z,-2.40
2023-04-05T01:44:29.917Z,-2.40
2023-04-05T01:49:35.406Z,-2.40
2023-04-05T01:54:39.647Z,-2.40
2023-04-05T01:59:46.062Z,-2.50
2023-04-05T02:04:51.542Z,-2.40
2023-04-05T02:09:55.460Z,-2.40
2023-04-05T02:14:59.241Z,-2.50
2023-04-05T02:20:07.452Z,-2.50
2023-04-05T02:25:16.244Z,-2.40
2023-04-05T02:30:20.523Z,-2.40
2023-04-05T02:35:26.466Z,-2.20
2023-04-05T02:40:31.727Z,-2.30
2023-04-05T02:45:36.772Z,-2.10
2023-04-05T02:50:42.459Z,-2.10
2023-04-05T02:55:54.155Z,-1.90
2023-04-05T03:01:02.603Z,-1.70
2023-04-05T03:06:11.364Z,-1.50
2023-04-05T03:11:18.732Z,-1.50
2023-04-05T03:16:28.691Z,-1.40
2023-04-05T03:21:35.315Z,-1.10
2023-04-05T03:26:47.034Z,-1.00
2023-04-05T03:31:53.527Z,-0.90
2023-04-05T03:37:01.381Z,-1.30
2023-04-05T03:42:28.867Z,-1.30
2023-04-05T03:47:33.289Z,-1.50
2023-04-05T03:52:42.785Z,-1.50
2023-04-05T03:57:48.156Z,-1.50
2023-04-05T04:03:01.295Z,-1.50
2023-04-05T04:08:07.138Z,-1.40
2023-04-05T04:13:12.756Z,-1.30
2023-04-05T04:18:17.087Z,-1.30
2023-04-05T04:23:46.124Z,-1.20
2023-04-05T04:29:18.626Z,-1.20
2023-04-05T04:34:35.413Z,-1.10
2023-04-05T04:39:49.424Z,-1.20
2023-04-05T04:45:16.151Z,-1.00
2023-04-05T04:50:23.443Z,-0.90
2023-04-05T04:55:28.917Z,-0.70
2023-04-05T05:00:32.882Z,-0.70
2023-04-05T05:05:37.020Z,-0.60
2023-04-05T05:10:43.087Z,-0.40
2023-04-05T05:15:48.609Z,-0.30
2023-04-05T05:20:53.038Z,-0.30
2023-04-05T05:26:00.298Z,-0.20
2023-04-05T05:31:04.678Z,0.10
2023-04-05T05:36:13.393Z,0.30
2023-04-05T05:41:18.781Z,0.50
2023-04-05T05:46:22.562Z,0.60
2023-04-05T05:51:26.394Z,0.80
2023-04-05T05:56:31.437Z,1.10
2023-04-05T06:01:38.437Z,1.40
2023-04-05T06:06:43.960Z,1.70
2023-04-05T06:11:56.517Z,1.90
2023-04-05T06:17:02.501Z,2.30
2023-04-05T06:22:06.436Z,2.80
2023-04-05T06:27:11.876Z,3.40
2023-04-05T06:32:15.621Z,3.50
2023-04-05T06:37:19.597Z,3.80
2023-04-05T06:42:26.478Z,4.10
2023-04-05T06:47:37.286Z,4.40
2023-04-05T06:52:42.226Z,4.60
2023-04-05T06:57:47.722Z,5.00
2023-04-05T07:02:51.740Z,5.40
2023-04-05T07:07:55.622Z,5.60
2023-04-05T07:13:00.923Z,5.40
2023-04-05T07:18:04.746Z,5.70
2023-04-05T07:23:08.478Z,6.30
2023-04-05T07:28:13.915Z,6.80
2023-04-05T07:33:17.788Z,7.40
2023-04-05T07:38:21.844Z,7.90
2023-04-05T07:43:26.968Z,10.10
2023-04-05T07:48:31.460Z,11.40
2023-04-05T07:53:36.505Z,12.10
2023-04-05T07:58:42.212Z,13.20
2023-04-05T08:03:46.148Z,11.60
2023-04-05T08:08:50.587Z,11.30
2023-04-05T08:13:55.905Z,12.00
2023-04-05T08:18:59.560Z,12.00
2023-04-05T08:24:03.580Z,13.80
2023-04-05T08:29:08.463Z,14.40
2023-04-05T08:34:12.203Z,14.90
2023-04-05T08:39:16.522Z,14.50
2023-04-05T08:44:25.078Z,13.40
2023-04-05T08:49:29.142Z,12.30
2023-04-05T08:54:33.002Z,14.90
2023-04-05T08:59:42.139Z,15.90
2023-04-05T09:04:49.336Z,16.30
2023-04-05T09:09:54.817Z,14.90
2023-04-05T09:15:02.163Z,16.20
2023-04-05T09:20:07.926Z,17.20
2023-04-05T09:25:12.899Z,15.40
2023-04-05T09:30:23.584Z,14.70
2023-04-05T09:35:30.183Z,12.30
2023-04-05T09:40:44.797Z,14.20
2023-04-05T09:45:52.226Z,14.20
2023-04-05T09:51:12.702Z,13.80
2023-04-05T09:56:18.144Z,13.10
2023-04-05T10:01:27.128Z,12.90
2023-04-05T10:06:38.661Z,12.10
2023-04-05T10:11:44.841Z,12.00
2023-04-05T10:16:59.138Z,12.20
2023-04-05T10:22:06.803Z,11.70
2023-04-05T10:27:18.033Z,11.00
2023-04-05T10:32:33.632Z,11.00
2023-04-05T10:37:50.050Z,11.00
2023-04-05T10:42:53.846Z,10.00
2023-04-05T10:48:07.063Z,10.50
2023-04-05T10:53:12.368Z,11.20
2023-04-05T10:58:16.255Z,11.20
2023-04-05T11:03:45.162Z,11.90
2023-04-05T11:08:51.424Z,11.60
2023-04-05T11:13:57.187Z,12.20
2023-04-05T11:19:02.227Z,11.50
2023-04-05T11:24:07.239Z,11.00
2023-04-05T11:29:11.865Z,12.30
2023-04-05T11:34:25.351Z,13.30
2023-04-05T11:39:29.885Z,12.90
2023-04-05T11:44:42.498Z,12.10
2023-04-05T11:49:50.406Z,10.70
2023-04-05T11:54:54.639Z,11.10
2023-04-05T11:59:58.715Z,11.20
2023-04-05T12:05:04.479Z,11.20
2023-04-05T12:10:14.091Z,10.90
2023-04-05T12:15:19.216Z,10.90
2023-04-05T12:20:25.849Z,10.60
2023-04-05T12:25:30.324Z,11.00
2023-04-05T12:30:37.965Z,11.00
2023-04-05T12:35:43.707Z,11.40
2023-04-05T12:40:48.081Z,12.10
2023-04-05T12:45:55.852Z,11.70
2023-04-05T12:51:05.483Z,12.50
2023-04-05T12:56:10.980Z,11.50
2023-04-05T13:01:15.557Z,11.70
2023-04-05T13:06:20.804Z,11.60
2023-04-05T13:11:25.581Z,11.10
2023-04-05T13:16:29.472Z,10.80
2023-04-05T13:21:34.761Z,11.30
2023-04-05T13:26:38.448Z,12.00
2023-04-05T13:31:42.442Z,10.80
2023-04-05T13:36:49.272Z,11.00
2023-04-05T13:41:52.969Z,10.90
2023-04-05T13:46:57.752Z,10.50
2023-04-05T13:52:03.167Z,10.70
2023-04-05T13:57:07.088Z,11.90
2023-04-05T14:02:11.883Z,12.10
2023-04-05T14:07:17.834Z,13.30
2023-04-05T14:12:21.798Z,13.50
2023-04-05T14:17:26.396Z,14.00
2023-04-05T14:22:32.717Z,13.90
2023-04-05T14:27:41.407Z,14.40
2023-04-05T14:32:45.852Z,14.70
2023-04-05T14:37:51.235Z,15.20
2023-04-05T14:42:55.282Z,15.40
2023-04-05T14:47:59.105Z,14.60
2023-04-05T14:53:04.280Z,15.30
2023-04-05T14:58:07.743Z,15.30
2023-04-05T15:03:12.081Z,15.00
2023-04-05T15:08:17.294Z,14.70
2023-04-05T15:13:21.912Z,15.10
2023-04-05T15:18:25.794Z,15.10
2023-04-05T15:23:31.832Z,15.20
2023-04-05T15:28:36.056Z,15.30
2023-04-05T15:33:40.309Z,13.80
2023-04-05T15:38:45.726Z,13.00
2023-04-05T15:43:50.353Z,11.50
2023-04-05T15:48:54.268Z,10.60
2023-04-05T15:53:59.801Z,10.90
2023-04-05T15:59:04.862Z,10.70
2023-04-05T16:04:11.036Z,10.40
2023-04-05T16:09:16.686Z,9.60
2023-04-05T16:14:20.633Z,9.30
2023-04-05T16:19:24.693Z,9.30
2023-04-05T16:24:30.361Z,9.40
2023-04-05T16:29:34.072Z,9.30
2023-04-05T16:34:38.815Z,9.30
2023-04-05T16:39:44.174Z,9.20
2023-04-05T16:44:48.950Z,9.40
2023-04-05T16:49:53.026Z,9.10
2023-04-05T16:54:58.890Z,8.90
2023-04-05T17:00:03.420Z,8.70
2023-04-05T17:05:08.892Z,8.50
2023-04-05T17:10:15.668Z,8.30
2023-04-05T17:15:19.748Z,8.10
2023-04-05T17:20:24.076Z,8.00
2023-04-05T17:25:29.246Z,7.80
2023-04-05T17:30:33.027Z,7.70
2023-04-05T17:35:38.132Z,7.60
2023-04-05T17:40:43.456Z,7.30
2023-04-05T17:45:47.445Z,7.10
2023-04-05T17:50:51.854Z,7.20
2023-04-05T17:55:59.798Z,7.00
2023-04-05T18:01:04.481Z,6.90
2023-04-05T18:06:08.895Z,6.90
2023-04-05T18:11:14.446Z,7.10
2023-04-05T18:16:18.999Z,6.90
2023-04-05T18:21:23.038Z,6.80
2023-04-05T18:26:28.571Z,6.70
2023-04-05T18:31:32.992Z,6.70
2023-04-05T18:36:39.690Z,6.70
2023-04-05T18:41:45.197Z,6.60
2023-04-05T18:46:49.804Z,6.60
2023-04-05T18:51:56.072Z,6.50
2023-04-05T18:57:01.602Z,6.70
2023-04-05T19:02:06.780Z,6.70
2023-04-05T19:07:11.186Z,6.60
2023-04-05T19:12:17.104Z,6.50
2023-04-05T19:17:20.960Z,6.50
2023-04-05T19:22:24.823Z,6.40
2023-04-05T19:27:35.138Z,6.20
2023-04-05T19:32:39.477Z,5.90
2023-04-05T19:37:43.291Z,5.70
2023-04-05T19:42:48.962Z,5.40
2023-04-05T19:47:53.442Z,5.10
2023-04-05T19:52:58.322Z,4.70
2023-04-05T19:58:07.210Z,4.40
2023-04-05T20:03:29.144Z,4.30
2023-04-05T20:08:34.353Z,4.10
2023-04-05T20:13:42.798Z,4.20
2023-04-05T20:18:48.321Z,4.30
2023-04-05T20:23:53.762Z,4.40
2023-04-05T20:29:02.028Z,4.20
2023-04-05T20:34:10.202Z,4.30
2023-04-05T20:39:14.652Z,4.20
2023-04-05T20:44:20.329Z,4.10
2023-04-05T20:49:24.425Z,3.90
2023-04-05T20:54:29.431Z,3.60
2023-04-05T20:59:35.149Z,3.50
2023-04-05T21:04:40.480Z,3.30
2023-04-05T21:09:44.083Z,3.10
2023-04-05T21:14:48.991Z,2.90
2023-04-05T21:19:52.576Z,2.90
2023-04-05T21:24:56.081Z,2.80
2023-04-05T21:30:00.939Z,2.90
2023-04-05T21:35:05.785Z,2.90
2023-04-05T21:40:10.343Z,3.00
2023-04-05T21:45:15.529Z,3.00
2023-04-05T21:50:19.899Z,3.00
2023-04-05T21:55:24.062Z,3.10
2023-04-05T22:00:29.441Z,3.10
2023-04-05T22:05:38.405Z,3.20
2023-04-05T22:10:43.871Z,3.10
2023-04-05T22:15:48.976Z,3.20
2023-04-05T22:20:52.724Z,3.20
2023-04-05T22:25:56.491Z,3.10
2023-04-05T22:31:01.782Z,3.10
2023-04-05T22:36:05.995Z,3.10
2023-04-05T22:41:10.141Z,3.10
2023-04-05T22:46:15.272Z,3.00
2023-04-05T22:51:19.776Z,3.00
2023-04-05T22:56:24.164Z,3.00
2023-04-05T23:01:29.202Z,3.00
2023-04-05T23:06:33.426Z,3.00
2023-04-05T23:11:37.669Z,3.00
2023-04-05T23:16:42.544Z,2.90
2023-04-05T23:21:46.057Z,2.80
2023-04-05T23:26:49.667Z,2.80
2023-04-05T23:31:55.028Z,2.70
2023-04-05T23:36:58.543Z,2.80
2023-04-05T23:42:02.744Z,2.70
2023-04-05T23:47:07.777Z,2.80
2023-04-05T23:52:11.861Z,2.90
2023-04-05T23:57:15.881Z,2.90
